Time;durP1;ratioP1;P1;durP2;ratioP2;P2;SDS_P1;SDS_P2;PMS_P1;PMS_P2;Temp;Humidity;BMP_temperature;BMP_pressure;BME280_temperature;BME280_humidity;BME280_pressure;Samples;Min_cycle;Max_cycle;Signal;HPM_P1;HPM_P2
2022/12/10 05:00:50;;;;;;;31.23;18.80;;;2.80;99.90;;;2.26;nan;97004.50;5802950;23;21072;-75
2022/12/10 05:03:17;;;;;;;31.20;18.43;;;2.80;99.90;;;2.27;nan;97003.69;4929233;29;20825;-75
2022/12/10 05:05:44;;;;;;;32.33;18.23;;;2.70;99.90;;;2.02;nan;97014.69;4929085;29;20719;-75
2022/12/10 05:08:11;;;;;;;34.90;19.53;;;2.70;99.90;;;2.06;nan;97013.13;4928644;29;20454;-75
2022/12/10 05:10:38;;;;;;;31.17;18.80;;;2.70;99.90;;;2.10;nan;97023.41;4928858;29;20482;-73
2022/12/10 05:13:05;;;;;;;37.13;19.27;;;2.60;99.90;;;2.10;nan;97014.94;4929213;29;20457;-75
2022/12/10 05:15:32;;;;;;;34.23;19.90;;;2.60;99.90;;;1.96;nan;97022.97;4928634;29;20501;-75
2022/12/10 05:18:00;;;;;;;32.33;18.97;;;2.60;99.90;;;2.05;nan;97031.69;4928270;29;20469;-74
2022/12/10 05:20:27;;;;;;;33.17;18.57;;;2.60;99.90;;;2.17;nan;97039.69;4928781;29;20458;-73
2022/12/10 05:25:52;;;;;;;30.67;19.37;;;2.70;99.90;;;2.20;nan;97029.66;4928721;29;20544;-75
2022/12/10 05:28:19;;;;;;;35.90;18.70;;;2.70;99.90;;;2.17;nan;97022.81;4928421;29;20541;-74
2022/12/10 05:30:46;;;;;;;35.10;20.00;;;2.70;99.90;;;2.21;nan;97024.63;4928070;29;20483;-75
2022/12/10 05:33:15;;;;;;;32.53;19.00;;;2.70;99.90;;;2.14;nan;97019.28;4928881;29;20466;-77
2022/12/10 05:35:42;;;;;;;30.27;18.20;;;2.70;99.90;;;2.21;nan;97028.84;4928129;29;20502;-67
2022/12/10 05:38:10;;;;;;;37.47;18.80;;;2.70;99.90;;;2.20;nan;97022.03;4927698;29;20457;-76
2022/12/10 05:40:37;;;;;;;29.40;17.60;;;2.70;99.90;;;2.10;nan;97023.41;4927996;29;20518;-75
2022/12/10 05:43:04;;;;;;;32.27;18.40;;;2.70;99.90;;;1.97;nan;97027.22;4928116;29;20750;-73
2022/12/10 05:45:33;;;;;;;31.80;18.83;;;2.60;99.90;;;1.96;nan;97024.63;4928441;29;20464;-76
2022/12/10 05:48:00;;;;;;;34.57;19.47;;;2.60;99.90;;;2.03;nan;97024.00;4927409;29;20458;-75
2022/12/10 05:50:29;;;;;;;33.90;18.43;;;2.60;99.90;;;2.12;nan;97026.00;4928080;29;20464;-77
2022/12/10 05:52:55;;;;;;;33.40;18.33;;;2.60;99.90;;;2.01;nan;97034.09;4927781;29;20458;-76
2022/12/10 05:55:22;;;;;;;35.40;19.53;;;2.60;99.90;;;2.03;nan;97040.06;4927790;29;20977;-75
2022/12/10 05:57:49;;;;;;;30.53;18.27;;;2.60;99.90;;;1.92;nan;97036.31;4927277;29;20458;-76
2022/12/10 06:00:17;;;;;;;30.50;18.33;;;2.60;99.90;;;1.91;nan;97036.28;4927497;29;20465;-75
2022/12/10 06:02:43;;;;;;;31.53;18.23;;;2.60;99.90;;;1.82;nan;97039.34;4927681;29;20742;-77
2022/12/10 06:05:10;;;;;;;29.27;17.67;;;2.50;99.90;;;1.83;nan;97041.06;4928394;29;20458;-76
2022/12/10 06:07:39;;;;;;;33.27;17.77;;;2.50;99.90;;;1.86;nan;97050.47;4927706;29;20454;-76
2022/12/10 06:10:06;;;;;;;29.80;18.17;;;2.40;99.90;;;1.84;nan;97052.06;4927783;29;20836;-76
2022/12/10 06:12:34;;;;;;;36.47;20.87;;;2.40;99.90;;;1.81;nan;97054.50;4928048;29;20485;-76
2022/12/10 06:15:01;;;;;;;31.53;18.10;;;2.40;99.90;;;1.86;nan;97053.00;4927610;29;20454;-75
2022/12/10 06:17:28;;;;;;;31.70;18.40;;;2.40;99.90;;;1.75;nan;97059.38;4927229;29;20493;-75
2022/12/10 06:19:55;;;;;;;32.33;18.43;;;2.40;99.90;;;1.78;nan;97051.88;4927863;29;20459;-76
2022/12/10 06:22:22;;;;;;;30.67;18.07;;;2.40;99.90;;;1.82;nan;97049.50;4927733;29;20839;-78
2022/12/10 06:24:50;;;;;;;32.33;18.40;;;2.40;99.90;;;1.76;nan;97036.63;4927871;29;20458;-76
2022/12/10 06:27:17;;;;;;;36.40;19.17;;;2.40;99.90;;;1.72;nan;97042.38;4927028;29;20465;-75
2022/12/10 06:29:45;;;;;;;30.43;18.20;;;2.30;99.90;;;1.68;nan;97043.09;4927176;29;20493;-75
2022/12/10 06:32:12;;;;;;;32.00;18.30;;;2.30;99.90;;;1.71;nan;97045.72;4928569;29;21005;-76
2022/12/10 06:34:39;;;;;;;32.73;18.37;;;2.30;99.90;;;1.72;nan;97052.50;4930739;29;20764;-73
2022/12/10 06:37:06;;;;;;;41.77;19.30;;;2.30;99.90;;;1.72;nan;97050.84;4930500;29;20501;-76
2022/12/10 06:39:33;;;;;;;33.70;19.60;;;2.30;99.90;;;1.74;nan;97063.59;4931008;29;20481;-77
2022/12/10 06:42:01;;;;;;;32.27;18.37;;;2.30;99.90;;;1.81;nan;97064.63;4930779;29;20815;-74
2022/12/10 06:44:28;;;;;;;31.40;19.30;;;2.30;99.90;;;1.88;nan;97071.66;4929444;29;21247;-75
2022/12/10 06:46:55;;;;;;;31.10;18.97;;;2.40;99.90;;;1.94;nan;97077.81;4929088;29;20465;-76
2022/12/10 06:49:22;;;;;;;36.77;19.93;;;2.40;99.90;;;1.96;nan;97078.72;4930546;29;20468;-74
2022/12/10 06:51:49;;;;;;;32.83;18.93;;;2.50;99.90;;;1.97;nan;97080.44;4930404;29;21275;-76
2022/12/10 06:54:16;;;;;;;32.10;19.30;;;2.50;99.90;;;1.99;nan;97083.00;4931024;29;20900;-73
2022/12/10 06:56:43;;;;;;;33.00;18.20;;;2.50;99.90;;;2.02;nan;97083.97;4930245;29;20874;-75
2022/12/10 06:59:11;;;;;;;32.40;18.40;;;2.50;99.90;;;2.02;nan;97089.03;4931177;29;20477;-76
2022/12/10 07:01:39;;;;;;;32.90;18.87;;;2.60;99.90;;;1.99;nan;97088.09;4930481;29;20485;-77
2022/12/10 07:04:06;;;;;;;32.33;18.80;;;2.50;99.90;;;1.99;nan;97088.09;4930695;29;20464;-75
2022/12/10 07:06:33;;;;;;;34.80;18.60;;;2.50;99.90;;;1.94;nan;97077.81;4930587;29;20455;-76
2022/12/10 07:09:00;;;;;;;33.20;18.90;;;2.50;99.90;;;1.95;nan;97076.13;4930269;29;20458;-76
2022/12/10 07:11:28;;;;;;;35.70;19.30;;;2.50;99.90;;;1.85;nan;97076.63;4929899;29;20478;-76
2022/12/10 07:13:55;;;;;;;29.37;17.57;;;2.50;99.90;;;1.81;nan;97075.63;4930322;29;20458;-76
2022/12/10 07:16:28;;;;;;;33.67;18.13;;;2.40;99.90;;;1.82;nan;97069.75;4929427;29;20525;-77
2022/12/10 07:18:57;;;;;;;30.70;17.83;;;2.50;99.90;;;1.90;nan;97078.50;4929739;29;20967;-74
2022/12/10 07:21:28;;;;;;;33.30;19.17;;;2.50;99.90;;;1.89;nan;97084.38;4929825;29;20489;-73
2022/12/10 07:24:00;;;;;;;35.17;19.27;;;2.40;99.90;;;1.83;nan;97078.22;4929048;29;20688;-77
2022/12/10 07:26:31;;;;;;;37.80;20.77;;;2.40;99.90;;;1.73;nan;97077.03;4928941;29;20911;-76
2022/12/10 07:29:00;;;;;;;30.87;18.07;;;2.40;99.90;;;1.82;nan;97081.56;4929037;29;20553;-76
2022/12/10 07:31:29;;;;;;;31.80;18.03;;;2.40;99.90;;;1.82;nan;97081.56;4929298;29;21065;-75
2022/12/10 07:33:59;;;;;;;32.40;18.83;;;2.40;99.90;;;1.78;nan;97085.66;4929202;29;20910;-76
2022/12/10 07:36:27;;;;;;;33.33;20.00;;;2.40;99.90;;;1.84;nan;97093.50;4919374;29;21045;-76
2022/12/10 07:38:55;;;;;;;35.50;19.20;;;2.40;99.90;;;1.81;nan;97100.97;4923394;29;20458;-75
2022/12/10 07:41:24;;;;;;;36.60;20.07;;;2.40;99.90;;;1.81;nan;97093.38;4929090;29;20478;-76
2022/12/10 07:43:51;;;;;;;34.23;19.57;;;2.40;99.90;;;1.87;nan;97098.66;4928663;29;20477;-75
2022/12/10 07:46:22;;;;;;;32.70;18.17;;;2.40;99.90;;;1.90;nan;97108.91;4929327;29;20453;-74
2022/12/10 07:48:51;;;;;;;29.73;17.80;;;2.40;99.90;;;1.87;nan;97108.78;4929993;29;20469;-73
2022/12/10 07:51:22;;;;;;;31.77;18.33;;;2.40;99.90;;;1.95;nan;97115.00;4930069;29;21091;-76
2022/12/10 07:53:51;;;;;;;33.70;19.07;;;2.50;99.90;;;1.96;nan;97109.13;4929743;29;21104;-77
2022/12/10 07:56:18;;;;;;;34.20;18.77;;;2.50;99.90;;;1.94;nan;97120.88;4929234;29;20501;-76
2022/12/10 07:58:46;;;;;;;30.27;18.13;;;2.50;99.90;;;2.05;nan;97128.00;4930001;29;20525;-77
2022/12/10 08:01:16;;;;;;;29.37;18.37;;;2.60;99.90;;;2.01;nan;97138.00;4929507;29;20486;-75
2022/12/10 08:03:44;;;;;;;35.23;18.80;;;2.50;99.90;;;2.01;nan;97135.47;4930618;29;20466;-76
2022/12/10 08:06:15;;;;;;;33.50;19.17;;;2.50;99.90;;;1.96;nan;97131.94;4929685;29;20465;-75
2022/12/10 08:08:44;;;;;;;31.13;18.47;;;2.50;99.90;;;1.98;nan;97132.84;4930453;29;20469;-77
2022/12/10 08:11:14;;;;;;;33.37;18.20;;;2.60;99.90;;;1.94;nan;97135.19;4930117;29;20485;-76
2022/12/10 08:13:41;;;;;;;34.23;19.07;;;2.50;99.90;;;1.92;nan;97142.75;4929483;29;20454;-75
2022/12/10 08:16:12;;;;;;;32.90;19.20;;;2.50;99.90;;;1.98;nan;97137.91;4928851;29;20457;-77
2022/12/10 08:18:39;;;;;;;34.10;19.30;;;2.50;99.90;;;1.94;nan;97130.13;4929715;29;20462;-76
2022/12/10 08:21:07;;;;;;;34.60;19.17;;;2.50;99.90;;;2.02;nan;97138.88;4929604;29;20487;-77
2022/12/10 08:23:36;;;;;;;38.50;19.23;;;2.50;99.90;;;2.01;nan;97135.47;4929277;29;21141;-74
2022/12/10 08:26:05;;;;;;;37.40;19.87;;;2.50;99.90;;;2.00;nan;97138.81;4928718;29;20466;-77
2022/12/10 08:28:32;;;;;;;33.00;19.77;;;2.60;99.90;;;1.91;nan;97140.16;4929200;29;20465;-74
2022/12/10 08:30:59;;;;;;;35.67;20.07;;;2.60;99.90;;;1.98;nan;97145.50;4929747;29;20485;-77
2022/12/10 08:33:27;;;;;;;34.30;20.23;;;2.50;99.90;;;1.92;nan;97131.75;4929585;29;20461;-75
2022/12/10 08:35:58;;;;;;;40.57;21.77;;;2.60;99.90;;;1.98;nan;97145.50;4928865;29;20458;-75
2022/12/10 08:38:25;;;;;;;34.60;19.50;;;2.50;99.90;;;2.00;nan;97155.69;4930353;29;20549;-77
2022/12/10 08:40:54;;;;;;;36.33;19.83;;;2.60;99.90;;;2.01;nan;97155.75;4929217;29;20493;-75
2022/12/10 08:43:21;;;;;;;33.37;20.17;;;2.60;99.90;;;1.97;nan;97158.13;4929399;29;20925;-76
2022/12/10 08:45:48;;;;;;;37.80;20.63;;;2.60;99.90;;;2.09;nan;97158.56;4929588;29;20465;-77
2022/12/10 08:48:15;;;;;;;32.90;19.23;;;2.60;99.90;;;2.04;nan;97162.59;4928507;29;20921;-76
2022/12/10 08:50:42;;;;;;;36.83;20.23;;;2.60;99.90;;;2.02;nan;97160.00;4929451;29;20490;-74
2022/12/10 08:53:09;;;;;;;34.50;19.00;;;2.60;99.90;;;2.02;nan;97154.94;4929911;29;20457;-77
2022/12/10 08:55:40;;;;;;;35.03;18.93;;;2.60;99.90;;;2.02;nan;97146.47;4930629;29;20458;-78
2022/12/10 08:58:10;;;;;;;35.10;19.37;;;2.60;99.90;;;2.03;nan;97151.59;4930427;29;20905;-75
2022/12/10 09:00:37;;;;;;;35.90;20.07;;;2.60;99.90;;;2.01;nan;97145.59;4930072;29;20490;-76
2022/12/10 09:03:04;;;;;;;35.33;20.90;;;2.60;99.90;;;2.01;nan;97139.69;4929284;29;20469;-76
2022/12/10 09:05:32;;;;;;;33.07;18.83;;;2.60;99.90;;;2.01;nan;97145.59;4931241;29;21252;-78
2022/12/10 09:07:59;;;;;;;34.23;19.80;;;2.60;99.90;;;2.01;nan;97138.00;4930664;29;20951;-77
2022/12/10 09:10:26;;;;;;;35.40;21.40;;;2.60;99.90;;;2.06;nan;97143.25;4930495;29;20877;-77
2022/12/10 09:12:53;;;;;;;33.53;19.90;;;2.60;99.90;;;1.95;nan;97149.63;4930329;29;20454;-78
2022/12/10 09:15:21;;;;;;;38.40;21.77;;;2.50;99.90;;;2.05;nan;97155.88;4930636;29;20457;-74
2022/12/10 09:17:48;;;;;;;40.27;23.40;;;2.60;99.90;;;2.07;nan;97161.84;4929304;29;20505;-75
2022/12/10 09:20:15;;;;;;;39.37;22.47;;;2.60;99.90;;;2.08;nan;97155.97;4929611;29;20462;-78
2022/12/10 09:22:42;;;;;;;36.17;20.93;;;2.70;99.90;;;2.17;nan;97166.44;4930045;29;20463;-75
2022/12/10 09:25:10;;;;;;;39.73;20.93;;;2.70;99.90;;;2.17;nan;97174.03;4927233;29;20977;-76
2022/12/10 09:27:37;;;;;;;32.13;19.13;;;2.70;99.90;;;2.21;nan;97166.59;4927464;29;21022;-74
2022/12/10 09:30:06;;;;;;;33.67;19.37;;;2.80;99.90;;;2.30;nan;97169.44;4928717;29;20466;-75
2022/12/10 09:32:35;;;;;;;34.67;19.27;;;2.80;99.90;;;2.36;nan;97168.81;4927553;29;21054;-76
2022/12/10 09:35:02;;;;;;;34.47;19.57;;;2.90;99.90;;;2.37;nan;97174.72;4927447;29;20469;-76
2022/12/10 09:37:29;;;;;;;35.07;18.90;;;2.90;99.90;;;2.38;nan;97177.31;4926538;29;20494;-76
2022/12/10 09:39:56;;;;;;;28.87;17.13;;;2.90;99.90;;;2.37;nan;97170.53;4927910;29;20552;-74
2022/12/10 09:42:39;;;;;;;27.60;18.63;;;2.90;99.90;;;2.38;nan;97161.25;4927689;29;20990;-74
2022/12/10 09:45:18;;;;;;;30.00;17.70;;;2.90;99.90;;;2.43;nan;97172.38;4927918;29;20446;-75
2022/12/10 09:48:01;;;;;;;29.03;17.47;;;3.00;99.90;;;2.32;nan;97174.56;4926539;29;20838;-75
2022/12/10 09:50:38;;;;;;;29.40;17.40;;;3.00;99.90;;;2.29;nan;97167.72;4927139;29;20455;-74
2022/12/10 09:53:09;;;;;;;31.43;17.90;;;2.90;99.90;;;2.24;nan;97173.44;4927274;29;21361;-74
2022/12/10 09:55:41;;;;;;;29.80;18.17;;;2.90;99.90;;;2.25;nan;97172.66;4927250;29;20567;-73
2022/12/10 09:58:17;;;;;;;29.57;18.43;;;2.90;99.90;;;2.23;nan;97176.78;4926004;29;20502;-75
2022/12/10 10:00:48;;;;;;;29.70;16.40;;;2.80;99.90;;;2.33;nan;97180.50;4927219;29;20512;-75
2022/12/10 10:03:17;;;;;;;26.47;16.63;;;2.90;99.90;;;2.38;nan;97172.25;4927014;29;20830;-76
2022/12/10 10:05:50;;;;;;;28.93;16.70;;;2.90;99.90;;;2.44;nan;97174.97;4927415;29;20545;-76
2022/12/10 10:08:30;;;;;;;25.63;16.43;;;3.00;99.90;;;2.46;nan;97175.91;4930290;29;20438;-74
2022/12/10 10:10:59;;;;;;;29.00;16.40;;;3.00;99.90;;;2.56;nan;97161.88;4931024;29;20489;-76
2022/12/10 10:13:36;;;;;;;29.33;17.77;;;3.10;99.90;;;2.69;nan;97168.22;4931013;29;20469;-76
2022/12/10 10:16:24;;;;;;;27.83;17.87;;;3.20;99.90;;;2.64;nan;97170.56;4930908;29;20445;-77
2022/12/10 10:18:59;;;;;;;26.43;16.87;;;3.20;99.90;;;2.72;nan;97168.28;4930444;29;20498;-76
2022/12/10 10:21:31;;;;;;;29.73;16.27;;;3.20;99.90;;;2.77;nan;97169.31;4931069;29;20478;-76
2022/12/10 10:23:58;;;;;;;26.47;15.37;;;3.30;99.90;;;2.81;nan;97177.06;4930292;29;20971;-76
2022/12/10 10:26:26;;;;;;;27.33;14.77;;;3.30;99.90;;;2.85;nan;97178.88;4929931;29;20457;-77
2022/12/10 10:29:00;;;;;;;24.60;14.67;;;3.40;99.90;;;2.89;nan;97177.34;4930749;29;21281;-75
2022/12/10 10:31:31;;;;;;;24.70;15.00;;;3.40;99.90;;;2.97;nan;97182.66;4931621;29;20986;-66
2022/12/10 10:34:02;;;;;;;26.13;15.57;;;3.50;99.90;;;2.96;nan;97184.31;4932477;29;20461;-66
2022/12/10 10:36:33;;;;;;;21.50;13.93;;;3.50;99.90;;;2.87;nan;97176.44;4932211;29;20458;-65
2022/12/10 10:39:11;;;;;;;23.13;14.93;;;3.50;99.90;;;2.96;nan;97175.84;4931604;29;20502;-66
2022/12/10 10:41:40;;;;;;;21.80;14.73;;;3.50;99.90;;;2.95;nan;97179.19;4931324;29;20481;-67
2022/12/10 10:44:17;;;;;;;22.17;13.90;;;3.60;99.90;;;3.00;nan;97167.53;4931463;29;20462;-66
2022/12/10 10:46:48;;;;;;;22.27;13.83;;;3.60;99.90;;;3.04;nan;97180.34;4931521;29;20452;-76
2022/12/10 10:49:25;;;;;;;20.13;12.60;;;3.60;99.90;;;3.04;nan;97171.88;4931708;29;20453;-73
2022/12/10 10:51:53;;;;;;;20.63;13.40;;;3.60;99.90;;;3.14;nan;97171.34;4932335;29;20474;-76
2022/12/10 10:54:38;;;;;;;19.83;12.30;;;3.60;99.90;;;3.21;nan;97167.34;4931079;29;20466;-76
2022/12/10 10:57:13;;;;;;;19.40;12.30;;;3.70;99.90;;;3.20;nan;97175.78;4930624;29;20430;-74
2022/12/10 10:59:40;;;;;;;21.20;12.77;;;3.70;99.90;;;3.22;nan;97169.91;4931428;29;20438;-76
2022/12/10 11:02:21;;;;;;;20.10;12.27;;;3.80;99.90;;;3.23;nan;97178.41;4930908;29;21410;-76
2022/12/10 11:04:52;;;;;;;20.43;12.47;;;3.80;99.90;;;3.34;nan;97164.34;4931144;29;20459;-75
2022/12/10 11:07:34;;;;;;;20.93;12.50;;;3.80;99.90;;;3.31;nan;97170.19;4931386;29;20431;-75
2022/12/10 11:10:03;;;;;;;19.37;11.67;;;3.80;99.90;;;3.25;nan;97169.13;4931163;29;20446;-73
2022/12/10 11:12:37;;;;;;;17.97;11.90;;;3.90;99.90;;;3.28;nan;97171.81;4931524;29;20477;-76
2022/12/10 11:15:33;;;;;;;20.70;12.00;;;3.80;99.90;;;3.30;nan;97170.16;4931207;29;20633;-73
2022/12/10 11:18:01;;;;;;;18.33;12.27;;;3.80;99.90;;;3.28;nan;97170.13;4930134;29;20967;-73
2022/12/10 11:20:32;;;;;;;18.30;12.00;;;3.80;99.90;;;3.29;nan;97189.63;4929987;29;20939;-75
2022/12/10 11:23:02;;;;;;;18.77;12.53;;;3.90;99.90;;;3.27;nan;97176.00;4930829;29;20450;-76
2022/12/10 11:25:43;;;;;;;21.47;13.13;;;3.90;99.90;;;3.45;nan;97185.84;4931455;29;20955;-78
2022/12/10 11:28:34;;;;;;;32.60;18.17;;;3.90;99.90;;;3.44;nan;97186.66;4930604;29;20454;-75
2022/12/10 11:31:27;;;;;;;30.03;17.10;;;3.90;99.90;;;3.38;nan;97197.53;4930566;29;20991;-76
2022/12/10 11:34:07;;;;;;;30.47;17.00;;;4.00;99.90;;;3.39;nan;97199.25;4931077;29;20470;-77
2022/12/10 11:36:45;;;;;;;23.53;15.43;;;3.90;99.90;;;3.43;nan;97195.97;4931816;29;20469;-77
2022/12/10 11:39:46;;;;;;;24.10;14.87;;;3.90;99.90;;;3.42;nan;97198.47;4930664;29;20493;-74
2022/12/10 11:42:26;;;;;;;25.67;14.67;;;4.00;99.90;;;3.52;nan;97203.00;4929971;29;20493;-75
2022/12/10 11:45:07;;;;;;;21.80;12.77;;;4.00;99.90;;;3.43;nan;97190.03;4930468;29;20438;-76
2022/12/10 11:47:55;;;;;;;23.10;14.27;;;4.00;99.90;;;3.36;nan;97203.34;4929668;29;20974;-77
2022/12/10 11:50:34;;;;;;;22.03;14.87;;;4.00;99.90;;;3.36;nan;97198.25;4930268;29;20462;-76
2022/12/10 11:53:27;;;;;;;22.13;14.23;;;3.90;99.90;;;3.39;nan;97193.31;4930195;29;20497;-76
2022/12/10 11:56:22;;;;;;;22.07;13.77;;;3.90;99.90;;;3.40;nan;97197.56;4930007;29;20459;-76
2022/12/10 11:59:14;;;;;;;22.10;14.10;;;4.00;99.90;;;3.45;nan;97213.78;4928742;29;20502;-76
2022/12/10 12:02:21;;;;;;;20.63;14.13;;;4.00;99.90;;;3.46;nan;97208.75;4929998;29;20515;-76
2022/12/10 12:05:27;;;;;;;23.50;14.00;;;4.00;99.90;;;3.51;nan;97203.84;4930133;29;20462;-77
2022/12/10 12:08:13;;;;;;;22.17;13.73;;;4.00;99.90;;;3.52;nan;97200.47;4929111;29;20447;-77
2022/12/10 12:11:04;;;;;;;21.60;12.90;;;4.00;99.90;;;3.43;nan;97213.75;4929106;29;20486;-77
2022/12/10 12:13:39;;;;;;;21.70;13.50;;;4.00;99.90;;;3.40;nan;97211.13;4928585;29;20962;-76
2022/12/10 12:16:16;;;;;;;25.03;15.07;;;4.00;99.90;;;3.46;nan;97210.44;4927993;29;20449;-76
2022/12/10 12:18:54;;;;;;;24.83;14.57;;;3.90;99.90;;;3.45;nan;97221.41;4928210;29;21069;-76
2022/12/10 12:21:26;;;;;;;19.70;12.80;;;4.00;99.90;;;3.37;nan;97213.59;4928921;29;20477;-76
2022/12/10 12:24:03;;;;;;;21.90;13.53;;;4.00;99.90;;;3.45;nan;97214.66;4928536;29;20857;-75
2022/12/10 12:26:41;;;;;;;19.90;13.97;;;4.00;99.90;;;3.50;nan;97207.19;4928201;29;20464;-75
2022/12/10 12:29:20;;;;;;;24.03;13.10;;;4.00;99.90;;;3.43;nan;97202.72;4927918;29;20442;-75
2022/12/10 12:32:00;;;;;;;18.90;12.70;;;4.00;99.90;;;3.34;nan;97199.91;4927871;29;20567;-76
2022/12/10 12:34:42;;;;;;;23.87;14.00;;;4.00;99.90;;;3.41;nan;97212.84;4928297;29;20450;-77
2022/12/10 12:37:17;;;;;;;20.93;12.83;;;4.00;99.90;;;3.36;nan;97210.97;4929741;29;20488;-76
2022/12/10 12:39:58;;;;;;;23.27;13.97;;;3.90;99.90;;;3.36;nan;97216.91;4929461;29;21175;-75
2022/12/10 12:42:34;;;;;;;22.30;14.40;;;3.90;99.90;;;3.41;nan;97210.31;4928686;29;20488;-76
2022/12/10 12:45:13;;;;;;;23.83;13.80;;;3.90;99.90;;;3.53;nan;97219.97;4928363;29;20446;-75
2022/12/10 12:47:51;;;;;;;20.07;13.23;;;4.00;99.90;;;3.38;nan;97216.97;4929112;29;20443;-76
2022/12/10 12:50:32;;;;;;;20.63;12.77;;;4.00;99.90;;;3.32;nan;97225.25;4929398;29;20457;-77
2022/12/10 12:53:02;;;;;;;19.43;13.30;;;4.00;99.90;;;3.46;nan;97231.63;4928691;29;20462;-77
2022/12/10 12:55:51;;;;;;;18.50;12.83;;;4.00;99.90;;;3.42;nan;97231.50;4929376;29;20462;-77
2022/12/10 12:58:41;;;;;;;22.30;14.20;;;4.00;99.90;;;3.38;nan;97224.59;4928676;29;20981;-74
2022/12/10 13:01:30;;;;;;;20.73;13.60;;;3.90;99.90;;;3.28;nan;97230.22;4928864;29;20497;-77
2022/12/10 13:03:58;;;;;;;23.60;13.77;;;3.90;99.90;;;3.36;nan;97234.69;4929403;29;20454;-73
2022/12/10 13:06:28;;;;;;;20.93;13.23;;;3.90;99.90;;;3.22;nan;97241.00;4928624;29;20466;-75
2022/12/10 13:09:17;;;;;;;22.90;14.17;;;3.90;99.90;;;3.28;nan;97247.97;4928951;29;20445;-76
2022/12/10 13:11:47;;;;;;;19.20;12.60;;;3.90;99.90;;;3.31;nan;97248.06;4928720;29;20489;-75
2022/12/10 13:14:30;;;;;;;18.03;11.73;;;3.90;99.90;;;3.30;nan;97253.97;4929267;29;20455;-75
2022/12/10 13:17:26;;;;;;;18.37;10.73;;;3.90;99.90;;;3.21;nan;97249.44;4928153;29;20525;-76
2022/12/10 13:19:54;;;;;;;20.37;12.30;;;3.80;99.90;;;3.25;nan;97250.41;4928705;29;20443;-77
2022/12/10 13:22:55;;;;;;;20.43;14.47;;;3.80;99.90;;;3.27;nan;97259.81;4929048;29;20469;-77
2022/12/10 13:25:41;;;;;;;15.63;11.60;;;3.80;99.90;;;3.15;nan;97265.34;4928418;29;21625;-65
2022/12/10 13:28:28;;;;;;;19.73;12.67;;;3.80;99.90;;;3.13;nan;97261.03;4927977;29;20985;-75
2022/12/10 13:31:37;;;;;;;22.93;11.93;;;3.70;99.90;;;3.24;nan;97269.00;4929291;29;20509;-77
2022/12/10 13:34:24;;;;;;;18.37;11.60;;;3.80;99.90;;;3.31;nan;97274.31;4927950;29;20546;-76
2022/12/10 13:37:30;;;;;;;18.80;12.27;;;3.80;99.90;;;3.30;nan;97274.28;4927192;29;20519;-74
2022/12/10 13:40:25;;;;;;;21.40;12.80;;;3.80;99.90;;;3.32;nan;97273.50;4928160;29;20454;-76
2022/12/10 13:45:44;;;;;;;22.07;13.50;;;3.80;99.90;;;3.29;nan;97278.50;4932141;29;20861;-76
2022/12/10 13:48:35;;;;;;;18.10;11.90;;;3.80;99.90;;;3.31;nan;97276.00;4931349;29;20454;-76
2022/12/10 13:51:44;;;;;;;18.40;12.50;;;3.80;99.90;;;3.30;nan;97284.44;4932183;29;20502;-76
2022/12/10 13:54:42;;;;;;;18.00;11.40;;;3.80;99.90;;;3.20;nan;97290.03;4932404;29;20466;-75
2022/12/10 13:57:34;;;;;;;20.53;11.20;;;3.80;99.90;;;3.16;nan;97281.44;4931162;29;20458;-75
2022/12/10 14:00:11;;;;;;;21.10;11.83;;;3.70;99.90;;;3.28;nan;97291.16;4932023;29;20494;-75
2022/12/10 14:03:36;;;;;;;18.40;12.00;;;3.80;99.90;;;3.20;nan;97293.44;4931671;29;20465;-76
2022/12/10 14:06:20;;;;;;;19.10;12.03;;;3.70;99.90;;;3.26;nan;97313.94;4914482;29;20500;-77
2022/12/10 14:09:02;;;;;;;20.43;13.30;;;3.80;99.90;;;3.18;nan;97306.09;4931798;29;20490;-76
2022/12/10 14:11:35;;;;;;;19.50;12.63;;;3.70;99.90;;;3.20;nan;97318.81;4932021;29;20477;-76
2022/12/10 14:14:05;;;;;;;20.07;12.70;;;3.70;99.90;;;3.20;nan;97318.81;4932008;29;20450;-76
2022/12/10 14:16:39;;;;;;;23.43;13.77;;;3.70;99.90;;;3.24;nan;97318.09;4931306;29;20658;-76
2022/12/10 14:19:15;;;;;;;19.40;12.40;;;3.80;99.90;;;3.29;nan;97313.19;4931715;29;20504;-74
2022/12/10 14:21:47;;;;;;;19.03;12.70;;;3.80;99.90;;;3.29;nan;97320.81;4933084;29;20486;-74
2022/12/10 14:24:31;;;;;;;23.23;13.93;;;3.80;99.90;;;3.36;nan;97331.19;4933015;29;20446;-73
2022/12/10 14:27:04;;;;;;;19.77;12.67;;;3.80;99.90;;;3.26;nan;97333.38;4931797;29;20457;-76
2022/12/10 14:29:34;;;;;;;20.17;13.57;;;3.90;99.90;;;3.22;nan;97331.56;4932122;29;20450;-75
2022/12/10 14:32:05;;;;;;;22.40;12.97;;;3.80;99.90;;;3.24;nan;97337.56;4932019;29;20490;-76
2022/12/10 14:34:32;;;;;;;23.77;13.97;;;3.70;99.90;;;3.30;nan;97333.56;4931968;29;20466;-75
2022/12/10 14:37:05;;;;;;;23.37;14.13;;;3.80;99.90;;;3.37;nan;97337.13;4930984;29;20458;-73
2022/12/10 14:39:34;;;;;;;18.93;12.93;;;3.80;99.90;;;3.41;nan;97336.44;4931799;29;20489;-75
2022/12/10 14:42:06;;;;;;;25.57;13.97;;;3.80;99.90;;;3.40;nan;97335.59;4931289;29;20481;-75
2022/12/10 14:44:40;;;;;;;24.83;14.23;;;3.90;99.90;;;3.33;nan;97340.41;4929779;29;20439;-74
2022/12/10 14:47:14;;;;;;;22.83;13.60;;;3.90;99.90;;;3.28;nan;97347.03;4930553;29;20840;-76
2022/12/10 14:49:45;;;;;;;21.97;13.97;;;3.80;99.90;;;3.22;nan;97347.66;4931655;29;20434;-76
2022/12/10 14:52:17;;;;;;;27.50;14.03;;;3.80;99.90;;;3.28;nan;97349.56;4931291;29;20895;-75
2022/12/10 14:54:46;;;;;;;24.77;14.07;;;3.80;99.90;;;3.34;nan;97347.22;4932116;29;20457;-75
2022/12/10 14:57:22;;;;;;;24.33;15.70;;;3.80;99.90;;;3.39;nan;97350.78;4930912;29;20465;-76
2022/12/10 15:00:04;;;;;;;22.63;14.93;;;3.80;99.90;;;3.41;nan;97351.69;4931434;29;20970;-75
2022/12/10 15:02:37;;;;;;;24.03;13.30;;;3.90;99.90;;;3.44;nan;97360.25;4931004;29;20486;-76
2022/12/10 15:05:12;;;;;;;23.80;14.40;;;3.90;99.90;;;3.49;nan;97362.97;4931503;29;20833;-74
2022/12/10 15:07:41;;;;;;;24.57;13.90;;;3.90;99.90;;;3.44;nan;97370.44;4931113;29;20462;-76
2022/12/10 15:10:22;;;;;;;20.87;13.43;;;3.90;99.90;;;3.12;nan;97366.78;4931599;29;20465;-76
2022/12/10 15:12:51;;;;;;;22.07;13.17;;;3.80;99.90;;;3.18;nan;97374.63;4931655;29;20880;-76
2022/12/10 15:15:29;;;;;;;22.47;13.50;;;3.70;99.90;;;3.22;nan;97372.19;4931708;29;20466;-75
2022/12/10 15:18:01;;;;;;;22.80;14.67;;;3.70;99.90;;;2.99;nan;97367.19;4931165;29;20450;-74
2022/12/10 15:20:32;;;;;;;23.90;15.17;;;3.60;99.90;;;3.05;nan;97377.53;4931940;29;20509;-76
2022/12/10 15:23:23;;;;;;;22.33;14.00;;;3.60;99.90;;;3.12;nan;97365.94;4931760;29;20462;-73
2022/12/10 15:25:59;;;;;;;22.90;14.43;;;3.60;99.90;;;3.12;nan;97363.41;4930443;29;20444;-73
2022/12/10 15:28:28;;;;;;;22.30;14.07;;;3.60;99.90;;;3.17;nan;97372.91;4930281;29;20450;-75
2022/12/10 15:30:59;;;;;;;22.30;14.40;;;3.60;99.90;;;2.96;nan;97377.22;4930151;29;20467;-74
2022/12/10 15:33:37;;;;;;;25.67;14.17;;;3.60;99.90;;;3.04;nan;97382.56;4929939;29;20439;-73
2022/12/10 15:36:05;;;;;;;22.83;14.97;;;3.50;99.90;;;3.07;nan;97385.25;4929762;29;20442;-76
2022/12/10 15:38:34;;;;;;;25.43;14.63;;;3.60;99.90;;;2.95;nan;97390.72;4930451;29;20501;-77
2022/12/10 15:41:43;;;;;;;29.30;17.80;;;3.50;99.90;;;2.92;nan;97397.38;4929914;29;20485;-77
2022/12/10 15:44:26;;;;;;;38.37;21.27;;;3.50;99.90;;;2.92;nan;97394.84;4924445;29;20473;-75
2022/12/10 15:47:01;;;;;;;35.17;22.10;;;3.40;99.90;;;2.54;nan;97387.53;4929000;29;20812;-75
2022/12/10 15:49:28;;;;;;;47.67;30.90;;;3.30;99.90;;;2.47;nan;97407.56;4929912;29;20442;-75
2022/12/10 15:51:56;;;;;;;31.60;21.60;;;3.20;99.90;;;2.51;nan;97401.78;4929232;29;20478;-75
2022/12/10 15:54:34;;;;;;;31.60;21.13;;;3.10;99.90;;;2.48;nan;97407.63;4929872;29;20458;-77
2022/12/10 15:57:01;;;;;;;32.70;20.97;;;3.10;99.90;;;2.43;nan;97396.44;4929625;29;20442;-76
2022/12/10 15:59:28;;;;;;;27.77;18.50;;;3.10;99.90;;;2.55;nan;97401.97;4930145;29;20499;-72
2022/12/10 16:02:03;;;;;;;25.63;15.40;;;3.10;99.90;;;2.63;nan;97394.63;4930936;29;20490;-72
2022/12/10 16:04:30;;;;;;;29.90;16.60;;;3.10;99.90;;;2.53;nan;97392.56;4931096;29;20923;-72
2022/12/10 16:06:57;;;;;;;29.00;16.33;;;3.10;99.90;;;2.44;nan;97400.69;4931223;29;20493;-72